sensor_id;sensor_type;location;lat;lon;timestamp;P1;durP1;ratioP1;P2;durP2;ratioP2
69008;SDS011;56065;52.472;13.380;2023-05-10T00:00:54;9.50;;;3.80;;
69008;SDS011;56065;52.472;13.380;2023-05-10T00:03:20;7.80;;;3.87;;
69008;SDS011;56065;52.472;13.380;2023-05-10T00:05:45;10.20;;;4.40;;
69008;SDS011;56065;52.472;13.380;2023-05-10T00:08:10;7.17;;;3.37;;
69008;SDS011;56065;52.472;13.380;2023-05-10T00:10:36;8.60;;;4.53;;
69008;SDS011;56065;52.472;13.380;2023-05-10T00:13:02;9.25;;;4.10;;
69008;SDS011;56065;52.472;13.380;2023-05-10T00:15:28;12.07;;;5.43;;
69008;SDS011;56065;52.472;13.380;2023-05-10T00:17:55;8.70;;;3.90;;
69008;SDS011;56065;52.472;13.380;2023-05-10T00:20:21;7.73;;;3.70;;
69008;SDS011;56065;52.472;13.380;2023-05-10T00:22:46;10.17;;;4.77;;
69008;SDS011;56065;52.472;13.380;2023-05-10T00:25:11;10.43;;;4.00;;
69008;SDS011;56065;52.472;13.380;2023-05-10T00:27:37;10.30;;;3.90;;
69008;SDS011;56065;52.472;13.380;2023-05-10T00:30:02;11.40;;;4.60;;
69008;SDS011;56065;52.472;13.380;2023-05-10T00:32:28;9.63;;;4.30;;
69008;SDS011;56065;52.472;13.380;2023-05-10T00:34:53;9.52;;;3.83;;
69008;SDS011;56065;52.472;13.380;2023-05-10T00:37:18;9.13;;;4.17;;
69008;SDS011;56065;52.472;13.380;2023-05-10T00:39:44;10.27;;;4.27;;
69008;SDS011;56065;52.472;13.380;2023-05-10T00:42:09;9.07;;;4.30;;
69008;SDS011;56065;52.472;13.380;2023-05-10T00:44:35;10.10;;;4.23;;
69008;SDS011;56065;52.472;13.380;2023-05-10T00:47:00;10.50;;;4.07;;
69008;SDS011;56065;52.472;13.380;2023-05-10T00:49:25;9.15;;;4.00;;
69008;SDS011;56065;52.472;13.380;2023-05-10T00:51:51;10.00;;;4.00;;
69008;SDS011;56065;52.472;13.380;2023-05-10T00:54:16;11.43;;;4.10;;
69008;SDS011;56065;52.472;13.380;2023-05-10T00:56:42;11.88;;;4.80;;
69008;SDS011;56065;52.472;13.380;2023-05-10T00:59:13;11.27;;;5.07;;
69008;SDS011;56065;52.472;13.380;2023-05-10T01:01:41;9.75;;;4.68;;
69008;SDS011;56065;52.472;13.380;2023-05-10T01:04:06;10.07;;;4.60;;
69008;SDS011;56065;52.472;13.380;2023-05-10T01:06:32;10.07;;;4.30;;
69008;SDS011;56065;52.472;13.380;2023-05-10T01:08:57;10.32;;;5.43;;
69008;SDS011;56065;52.472;13.380;2023-05-10T01:11:23;9.87;;;4.77;;
69008;SDS011;56065;52.472;13.380;2023-05-10T01:13:52;11.50;;;4.50;;
69008;SDS011;56065;52.472;13.380;2023-05-10T01:16:22;11.75;;;4.38;;
69008;SDS011;56065;52.472;13.380;2023-05-10T01:18:48;9.73;;;4.40;;
69008;SDS011;56065;52.472;13.380;2023-05-10T01:32:27;9.82;;;4.57;;
69008;SDS011;56065;52.472;13.380;2023-05-10T01:40:26;10.17;;;5.07;;
69008;SDS011;56065;52.472;13.380;2023-05-10T01:43:09;10.27;;;4.82;;
69008;SDS011;56065;52.472;13.380;2023-05-10T01:45:50;9.15;;;4.40;;
69008;SDS011;56065;52.472;13.380;2023-05-10T01:48:25;9.80;;;4.97;;
69008;SDS011;56065;52.472;13.380;2023-05-10T01:50:53;12.20;;;5.00;;
69008;SDS011;56065;52.472;13.380;2023-05-10T01:53:19;9.93;;;4.70;;
69008;SDS011;56065;52.472;13.380;2023-05-10T01:55:46;9.15;;;4.00;;
69008;SDS011;56065;52.472;13.380;2023-05-10T01:58:15;9.80;;;4.72;;
69008;SDS011;56065;52.472;13.380;2023-05-10T02:00:45;10.10;;;4.75;;
69008;SDS011;56065;52.472;13.380;2023-05-10T02:03:12;9.45;;;4.55;;
69008;SDS011;56065;52.472;13.380;2023-05-10T02:05:39;8.87;;;4.20;;
69008;SDS011;56065;52.472;13.380;2023-05-10T02:08:06;11.68;;;4.40;;
69008;SDS011;56065;52.472;13.380;2023-05-10T02:10:34;8.77;;;4.40;;
69008;SDS011;56065;52.472;13.380;2023-05-10T02:13:00;8.75;;;4.35;;
69008;SDS011;56065;52.472;13.380;2023-05-10T02:15:27;9.02;;;4.68;;
69008;SDS011;56065;52.472;13.380;2023-05-10T02:17:55;11.07;;;4.50;;
69008;SDS011;56065;52.472;13.380;2023-05-10T02:20:22;9.65;;;4.68;;
69008;SDS011;56065;52.472;13.380;2023-05-10T02:22:49;9.45;;;4.50;;
69008;SDS011;56065;52.472;13.380;2023-05-10T02:25:16;9.25;;;4.57;;
69008;SDS011;56065;52.472;13.380;2023-05-10T02:27:44;11.18;;;4.50;;
69008;SDS011;56065;52.472;13.380;2023-05-10T02:30:11;10.47;;;4.90;;
69008;SDS011;56065;52.472;13.380;2023-05-10T02:32:37;10.32;;;4.57;;
69008;SDS011;56065;52.472;13.380;2023-05-10T02:35:03;9.23;;;4.38;;
69008;SDS011;56065;52.472;13.380;2023-05-10T02:37:30;8.43;;;4.38;;
69008;SDS011;56065;52.472;13.380;2023-05-10T02:39:57;8.80;;;4.30;;
69008;SDS011;56065;52.472;13.380;2023-05-10T02:42:25;8.37;;;3.90;;
69008;SDS011;56065;52.472;13.380;2023-05-10T02:44:53;9.00;;;4.43;;
69008;SDS011;56065;52.472;13.380;2023-05-10T02:47:24;13.60;;;5.10;;
69008;SDS011;56065;52.472;13.380;2023-05-10T02:49:49;10.20;;;4.60;;
69008;SDS011;56065;52.472;13.380;2023-05-10T02:52:16;9.90;;;4.50;;
69008;SDS011;56065;52.472;13.380;2023-05-10T02:54:49;8.17;;;4.13;;
69008;SDS011;56065;52.472;13.380;2023-05-10T02:57:17;8.40;;;4.07;;
69008;SDS011;56065;52.472;13.380;2023-05-10T02:59:50;10.38;;;4.53;;
69008;SDS011;56065;52.472;13.380;2023-05-10T03:02:15;10.73;;;4.83;;
69008;SDS011;56065;52.472;13.380;2023-05-10T03:04:41;8.68;;;4.50;;
69008;SDS011;56065;52.472;13.380;2023-05-10T03:07:06;9.90;;;4.40;;
69008;SDS011;56065;52.472;13.380;2023-05-10T03:09:32;10.07;;;4.10;;
69008;SDS011;56065;52.472;13.380;2023-05-10T03:12:15;9.37;;;4.43;;
69008;SDS011;56065;52.472;13.380;2023-05-10T03:20:12;9.50;;;4.10;;
69008;SDS011;56065;52.472;13.380;2023-05-10T03:23:05;10.52;;;4.47;;
69008;SDS011;56065;52.472;13.380;2023-05-10T03:25:36;9.93;;;3.92;;
69008;SDS011;56065;52.472;13.380;2023-05-10T03:28:02;9.68;;;3.90;;
69008;SDS011;56065;52.472;13.380;2023-05-10T03:30:29;10.57;;;3.85;;
69008;SDS011;56065;52.472;13.380;2023-05-10T03:32:55;11.10;;;3.93;;
69008;SDS011;56065;52.472;13.380;2023-05-10T03:35:21;10.15;;;4.00;;
69008;SDS011;56065;52.472;13.380;2023-05-10T03:37:48;9.85;;;4.07;;
69008;SDS011;56065;52.472;13.380;2023-05-10T03:40:13;10.23;;;3.93;;
69008;SDS011;56065;52.472;13.380;2023-05-10T03:42:39;8.37;;;3.83;;
69008;SDS011;56065;52.472;13.380;2023-05-10T03:45:05;8.63;;;3.90;;
69008;SDS011;56065;52.472;13.380;2023-05-10T03:47:31;8.93;;;4.03;;
69008;SDS011;56065;52.472;13.380;2023-05-10T03:49:57;10.60;;;3.63;;
69008;SDS011;56065;52.472;13.380;2023-05-10T03:52:22;8.67;;;4.00;;
69008;SDS011;56065;52.472;13.380;2023-05-10T03:54:47;11.17;;;3.90;;
69008;SDS011;56065;52.472;13.380;2023-05-10T03:57:13;11.83;;;3.23;;
69008;SDS011;56065;52.472;13.380;2023-05-10T03:59:38;8.60;;;3.57;;
69008;SDS011;56065;52.472;13.380;2023-05-10T04:02:03;8.50;;;3.57;;
69008;SDS011;56065;52.472;13.380;2023-05-10T04:04:29;9.50;;;4.03;;
69008;SDS011;56065;52.472;13.380;2023-05-10T04:06:54;9.97;;;4.10;;
69008;SDS011;56065;52.472;13.380;2023-05-10T04:09:20;10.30;;;3.67;;
69008;SDS011;56065;52.472;13.380;2023-05-10T04:11:45;8.80;;;3.40;;
69008;SDS011;56065;52.472;13.380;2023-05-10T04:14:11;8.53;;;3.60;;
69008;SDS011;56065;52.472;13.380;2023-05-10T04:16:36;9.20;;;3.43;;
69008;SDS011;56065;52.472;13.380;2023-05-10T04:19:01;10.20;;;3.73;;
69008;SDS011;56065;52.472;13.380;2023-05-10T04:21:27;9.93;;;3.97;;
69008;SDS011;56065;52.472;13.380;2023-05-10T04:23:53;11.00;;;3.90;;
69008;SDS011;56065;52.472;13.380;2023-05-10T04:26:18;8.70;;;3.87;;
69008;SDS011;56065;52.472;13.380;2023-05-10T04:28:43;7.97;;;3.43;;
69008;SDS011;56065;52.472;13.380;2023-05-10T04:31:09;8.80;;;3.90;;
69008;SDS011;56065;52.472;13.380;2023-05-10T04:33:35;8.27;;;3.53;;
69008;SDS011;56065;52.472;13.380;2023-05-10T04:36:02;9.63;;;3.50;;
69008;SDS011;56065;52.472;13.380;2023-05-10T04:38:28;9.27;;;3.58;;
69008;SDS011;56065;52.472;13.380;2023-05-10T04:40:53;11.43;;;3.73;;
69008;SDS011;56065;52.472;13.380;2023-05-10T04:43:19;11.68;;;3.55;;
69008;SDS011;56065;52.472;13.380;2023-05-10T04:45:45;10.50;;;3.97;;
69008;SDS011;56065;52.472;13.380;2023-05-10T04:48:10;8.53;;;3.70;;
69008;SDS011;56065;52.472;13.380;2023-05-10T04:50:36;9.20;;;3.72;;
69008;SDS011;56065;52.472;13.380;2023-05-10T04:53:02;8.27;;;3.13;;
69008;SDS011;56065;52.472;13.380;2023-05-10T04:55:27;9.13;;;3.60;;
69008;SDS011;56065;52.472;13.380;2023-05-10T04:57:53;7.70;;;3.30;;
69008;SDS011;56065;52.472;13.380;2023-05-10T05:00:20;8.32;;;3.58;;
69008;SDS011;56065;52.472;13.380;2023-05-10T05:02:45;9.30;;;3.60;;
69008;SDS011;56065;52.472;13.380;2023-05-10T05:05:11;12.45;;;3.97;;
69008;SDS011;56065;52.472;13.380;2023-05-10T05:07:37;9.77;;;3.87;;
69008;SDS011;56065;52.472;13.380;2023-05-10T05:10:06;11.15;;;3.28;;
69008;SDS011;56065;52.472;13.380;2023-05-10T05:12:34;8.90;;;3.53;;
69008;SDS011;56065;52.472;13.380;2023-05-10T05:14:59;11.57;;;3.40;;
69008;SDS011;56065;52.472;13.380;2023-05-10T05:17:25;11.52;;;3.20;;
69008;SDS011;56065;52.472;13.380;2023-05-10T05:19:51;8.63;;;2.93;;
69008;SDS011;56065;52.472;13.380;2023-05-10T05:22:16;8.07;;;3.23;;
69008;SDS011;56065;52.472;13.380;2023-05-10T05:24:42;11.37;;;3.10;;
69008;SDS011;56065;52.472;13.380;2023-05-10T05:27:08;9.60;;;3.00;;
69008;SDS011;56065;52.472;13.380;2023-05-10T05:29:33;7.25;;;2.78;;
69008;SDS011;56065;52.472;13.380;2023-05-10T05:31:59;9.80;;;3.00;;
69008;SDS011;56065;52.472;13.380;2023-05-10T05:34:24;8.10;;;2.85;;
69008;SDS011;56065;52.472;13.380;2023-05-10T05:36:50;6.53;;;2.50;;
69008;SDS011;56065;52.472;13.380;2023-05-10T05:39:15;8.53;;;3.03;;
69008;SDS011;56065;52.472;13.380;2023-05-10T05:41:41;8.77;;;2.80;;
69008;SDS011;56065;52.472;13.380;2023-05-10T05:44:06;7.30;;;2.90;;
69008;SDS011;56065;52.472;13.380;2023-05-10T05:46:31;7.07;;;3.00;;
69008;SDS011;56065;52.472;13.380;2023-05-10T05:48:57;7.57;;;3.00;;
69008;SDS011;56065;52.472;13.380;2023-05-10T05:51:22;7.27;;;2.70;;
69008;SDS011;56065;52.472;13.380;2023-05-10T05:53:47;10.20;;;3.00;;
69008;SDS011;56065;52.472;13.380;2023-05-10T05:56:13;8.83;;;2.90;;
69008;SDS011;56065;52.472;13.380;2023-05-10T05:58:38;8.32;;;2.85;;
69008;SDS011;56065;52.472;13.380;2023-05-10T06:01:04;6.83;;;2.63;;
69008;SDS011;56065;52.472;13.380;2023-05-10T06:03:29;6.33;;;2.77;;
69008;SDS011;56065;52.472;13.380;2023-05-10T06:05:55;8.43;;;2.87;;
69008;SDS011;56065;52.472;13.380;2023-05-10T06:08:20;7.63;;;2.70;;
69008;SDS011;56065;52.472;13.380;2023-05-10T06:10:45;8.87;;;2.70;;
69008;SDS011;56065;52.472;13.380;2023-05-10T06:13:11;10.07;;;2.70;;
69008;SDS011;56065;52.472;13.380;2023-05-10T06:15:36;13.30;;;5.17;;
69008;SDS011;56065;52.472;13.380;2023-05-10T06:18:01;13.87;;;6.43;;
69008;SDS011;56065;52.472;13.380;2023-05-10T06:20:27;8.73;;;3.22;;
69008;SDS011;56065;52.472;13.380;2023-05-10T06:22:52;7.47;;;2.60;;
69008;SDS011;56065;52.472;13.380;2023-05-10T06:25:17;6.43;;;2.50;;
69008;SDS011;56065;52.472;13.380;2023-05-10T06:27:43;7.27;;;2.43;;
69008;SDS011;56065;52.472;13.380;2023-05-10T06:30:09;15.32;;;5.03;;
69008;SDS011;56065;52.472;13.380;2023-05-10T06:32:35;8.13;;;2.83;;
69008;SDS011;56065;52.472;13.380;2023-05-10T06:35:00;7.83;;;2.33;;
69008;SDS011;56065;52.472;13.380;2023-05-10T06:37:25;7.73;;;3.00;;
69008;SDS011;56065;52.472;13.380;2023-05-10T06:39:51;6.13;;;2.50;;
69008;SDS011;56065;52.472;13.380;2023-05-10T06:42:16;6.63;;;2.20;;
69008;SDS011;56065;52.472;13.380;2023-05-10T06:44:41;7.43;;;2.67;;
69008;SDS011;56065;52.472;13.380;2023-05-10T06:47:08;8.05;;;2.80;;
69008;SDS011;56065;52.472;13.380;2023-05-10T06:49:33;7.53;;;2.20;;
69008;SDS011;56065;52.472;13.380;2023-05-10T06:51:59;5.78;;;2.00;;
69008;SDS011;56065;52.472;13.380;2023-05-10T06:54:24;6.77;;;2.17;;
69008;SDS011;56065;52.472;13.380;2023-05-10T06:56:50;6.17;;;2.13;;
69008;SDS011;56065;52.472;13.380;2023-05-10T06:59:15;6.80;;;2.10;;
69008;SDS011;56065;52.472;13.380;2023-05-10T07:01:41;6.72;;;2.50;;
69008;SDS011;56065;52.472;13.380;2023-05-10T07:04:07;6.95;;;2.63;;
69008;SDS011;56065;52.472;13.380;2023-05-10T07:06:33;5.50;;;2.33;;
69008;SDS011;56065;52.472;13.380;2023-05-10T07:08:58;7.23;;;2.80;;
69008;SDS011;56065;52.472;13.380;2023-05-10T07:11:24;7.65;;;2.70;;
69008;SDS011;56065;52.472;13.380;2023-05-10T07:13:49;6.60;;;2.50;;
69008;SDS011;56065;52.472;13.380;2023-05-10T07:16:14;8.43;;;2.50;;
69008;SDS011;56065;52.472;13.380;2023-05-10T07:18:40;6.97;;;2.40;;
69008;SDS011;56065;52.472;13.380;2023-05-10T07:21:05;6.07;;;2.50;;
69008;SDS011;56065;52.472;13.380;2023-05-10T07:23:31;7.77;;;2.30;;
69008;SDS011;56065;52.472;13.380;2023-05-10T07:25:56;7.30;;;2.40;;
69008;SDS011;56065;52.472;13.380;2023-05-10T07:28:22;6.63;;;2.50;;
69008;SDS011;56065;52.472;13.380;2023-05-10T07:30:49;5.95;;;2.38;;
69008;SDS011;56065;52.472;13.380;2023-05-10T07:33:15;5.93;;;2.30;;
69008;SDS011;56065;52.472;13.380;2023-05-10T07:35:41;5.70;;;2.80;;
69008;SDS011;56065;52.472;13.380;2023-05-10T07:38:07;6.28;;;2.67;;
69008;SDS011;56065;52.472;13.380;2023-05-10T07:40:32;6.73;;;2.20;;
69008;SDS011;56065;52.472;13.380;2023-05-10T07:42:57;4.87;;;2.37;;
69008;SDS011;56065;52.472;13.380;2023-05-10T07:45:23;6.38;;;2.88;;
69008;SDS011;56065;52.472;13.380;2023-05-10T07:47:49;7.37;;;2.10;;
69008;SDS011;56065;52.472;13.380;2023-05-10T07:50:15;14.52;;;3.08;;
69008;SDS011;56065;52.472;13.380;2023-05-10T07:52:40;6.17;;;2.33;;
69008;SDS011;56065;52.472;13.380;2023-05-10T07:55:06;6.45;;;2.33;;
69008;SDS011;56065;52.472;13.380;2023-05-10T07:57:33;5.97;;;2.50;;
69008;SDS011;56065;52.472;13.380;2023-05-10T07:59:58;7.55;;;2.45;;
69008;SDS011;56065;52.472;13.380;2023-05-10T08:02:24;5.23;;;2.30;;
69008;SDS011;56065;52.472;13.380;2023-05-10T08:04:49;5.67;;;2.37;;
69008;SDS011;56065;52.472;13.380;2023-05-10T08:07:14;5.57;;;2.30;;
69008;SDS011;56065;52.472;13.380;2023-05-10T08:09:40;7.57;;;2.40;;
69008;SDS011;56065;52.472;13.380;2023-05-10T08:12:05;8.40;;;2.50;;
69008;SDS011;56065;52.472;13.380;2023-05-10T08:14:30;5.87;;;2.57;;
69008;SDS011;56065;52.472;13.380;2023-05-10T08:16:56;5.32;;;2.53;;
69008;SDS011;56065;52.472;13.380;2023-05-10T08:19:22;5.03;;;2.33;;
69008;SDS011;56065;52.472;13.380;2023-05-10T08:21:47;10.43;;;2.78;;
69008;SDS011;56065;52.472;13.380;2023-05-10T08:24:13;6.13;;;2.57;;
69008;SDS011;56065;52.472;13.380;2023-05-10T08:26:39;7.45;;;2.45;;
69008;SDS011;56065;52.472;13.380;2023-05-10T08:29:05;6.20;;;2.53;;
69008;SDS011;56065;52.472;13.380;2023-05-10T08:31:30;6.63;;;2.60;;
69008;SDS011;56065;52.472;13.380;2023-05-10T08:33:55;6.70;;;2.60;;
69008;SDS011;56065;52.472;13.380;2023-05-10T08:36:21;8.00;;;2.90;;
69008;SDS011;56065;52.472;13.380;2023-05-10T08:38:52;8.07;;;2.70;;
69008;SDS011;56065;52.472;13.380;2023-05-10T08:41:21;5.78;;;2.33;;
69008;SDS011;56065;52.472;13.380;2023-05-10T08:43:49;8.57;;;2.87;;
69008;SDS011;56065;52.472;13.380;2023-05-10T08:46:16;6.00;;;2.35;;
69008;SDS011;56065;52.472;13.380;2023-05-10T08:48:43;6.57;;;2.90;;
69008;SDS011;56065;52.472;13.380;2023-05-10T08:51:09;6.05;;;2.33;;
69008;SDS011;56065;52.472;13.380;2023-05-10T08:53:40;6.80;;;3.03;;
69008;SDS011;56065;52.472;13.380;2023-05-10T08:56:05;6.27;;;2.43;;
69008;SDS011;56065;52.472;13.380;2023-05-10T08:58:31;5.40;;;2.63;;
69008;SDS011;56065;52.472;13.380;2023-05-10T09:00:56;6.13;;;3.07;;
69008;SDS011;56065;52.472;13.380;2023-05-10T09:03:23;7.70;;;3.10;;
69008;SDS011;56065;52.472;13.380;2023-05-10T09:05:48;5.63;;;2.53;;
69008;SDS011;56065;52.472;13.380;2023-05-10T09:08:14;8.57;;;3.00;;
69008;SDS011;56065;52.472;13.380;2023-05-10T09:10:42;7.30;;;3.38;;
69008;SDS011;56065;52.472;13.380;2023-05-10T09:13:09;6.22;;;2.97;;
69008;SDS011;56065;52.472;13.380;2023-05-10T09:15:36;8.25;;;3.00;;
69008;SDS011;56065;52.472;13.380;2023-05-10T09:18:01;8.97;;;2.90;;
69008;SDS011;56065;52.472;13.380;2023-05-10T09:20:27;9.17;;;3.20;;
69008;SDS011;56065;52.472;13.380;2023-05-10T09:22:53;6.40;;;2.75;;
69008;SDS011;56065;52.472;13.380;2023-05-10T09:25:18;5.43;;;2.80;;
69008;SDS011;56065;52.472;13.380;2023-05-10T09:27:45;8.38;;;3.15;;
69008;SDS011;56065;52.472;13.380;2023-05-10T09:30:23;6.72;;;2.95;;
69008;SDS011;56065;52.472;13.380;2023-05-10T09:32:50;7.80;;;3.00;;
69008;SDS011;56065;52.472;13.380;2023-05-10T09:35:16;6.10;;;2.75;;
69008;SDS011;56065;52.472;13.380;2023-05-10T09:37:43;6.75;;;3.30;;
69008;SDS011;56065;52.472;13.380;2023-05-10T09:40:11;6.75;;;2.80;;
69008;SDS011;56065;52.472;13.380;2023-05-10T09:42:41;5.63;;;3.00;;
69008;SDS011;56065;52.472;13.380;2023-05-10T09:45:15;6.50;;;3.03;;
69008;SDS011;56065;52.472;13.380;2023-05-10T09:47:40;6.43;;;3.05;;
69008;SDS011;56065;52.472;13.380;2023-05-10T09:50:06;7.13;;;3.30;;
69008;SDS011;56065;52.472;13.380;2023-05-10T09:52:45;6.67;;;3.10;;
69008;SDS011;56065;52.472;13.380;2023-05-10T09:55:11;6.47;;;3.40;;
69008;SDS011;56065;52.472;13.380;2023-05-10T09:57:37;4.80;;;2.92;;
69008;SDS011;56065;52.472;13.380;2023-05-10T10:00:03;9.60;;;3.27;;
69008;SDS011;56065;52.472;13.380;2023-05-10T10:02:30;6.35;;;3.20;;
69008;SDS011;56065;52.472;13.380;2023-05-10T10:04:56;6.43;;;2.93;;
69008;SDS011;56065;52.472;13.380;2023-05-10T10:07:22;5.47;;;2.70;;
69008;SDS011;56065;52.472;13.380;2023-05-10T10:09:50;7.70;;;3.60;;
69008;SDS011;56065;52.472;13.380;2023-05-10T10:12:16;6.90;;;3.33;;
69008;SDS011;56065;52.472;13.380;2023-05-10T10:14:41;6.73;;;3.33;;
69008;SDS011;56065;52.472;13.380;2023-05-10T10:17:07;6.00;;;3.28;;
69008;SDS011;56065;52.472;13.380;2023-05-10T10:19:33;5.60;;;3.03;;
69008;SDS011;56065;52.472;13.380;2023-05-10T10:22:00;5.93;;;3.40;;
69008;SDS011;56065;52.472;13.380;2023-05-10T10:24:25;5.97;;;3.27;;
69008;SDS011;56065;52.472;13.380;2023-05-10T10:26:51;7.43;;;3.20;;
69008;SDS011;56065;52.472;13.380;2023-05-10T10:32:19;7.35;;;2.97;;
69008;SDS011;56065;52.472;13.380;2023-05-10T10:34:50;6.90;;;2.90;;
69008;SDS011;56065;52.472;13.380;2023-05-10T10:37:16;6.37;;;3.00;;
69008;SDS011;56065;52.472;13.380;2023-05-10T10:39:42;5.77;;;3.73;;
69008;SDS011;56065;52.472;13.380;2023-05-10T10:42:07;6.63;;;3.63;;
69008;SDS011;56065;52.472;13.380;2023-05-10T10:49:50;5.65;;;3.33;;
69008;SDS011;56065;52.472;13.380;2023-05-10T10:52:27;6.00;;;3.30;;
69008;SDS011;56065;52.472;13.380;2023-05-10T10:57:35;5.37;;;3.07;;
69008;SDS011;56065;52.472;13.380;2023-05-10T11:08:07;7.30;;;4.15;;
69008;SDS011;56065;52.472;13.380;2023-05-10T11:10:36;5.50;;;3.50;;
69008;SDS011;56065;52.472;13.380;2023-05-10T11:13:03;6.18;;;3.30;;
69008;SDS011;56065;52.472;13.380;2023-05-10T11:15:34;7.53;;;3.17;;
69008;SDS011;56065;52.472;13.380;2023-05-10T11:18:18;5.82;;;3.00;;
69008;SDS011;56065;52.472;13.380;2023-05-10T11:20:49;6.10;;;3.00;;
69008;SDS011;56065;52.472;13.380;2023-05-10T11:23:16;6.30;;;3.00;;
69008;SDS011;56065;52.472;13.380;2023-05-10T11:25:43;6.78;;;2.80;;
69008;SDS011;56065;52.472;13.380;2023-05-10T11:28:09;7.63;;;2.75;;
69008;SDS011;56065;52.472;13.380;2023-05-10T11:30:35;7.53;;;2.70;;
69008;SDS011;56065;52.472;13.380;2023-05-10T11:33:02;5.87;;;3.00;;
69008;SDS011;56065;52.472;13.380;2023-05-10T11:35:27;7.30;;;2.90;;
69008;SDS011;56065;52.472;13.380;2023-05-10T11:37:53;5.63;;;2.80;;
69008;SDS011;56065;52.472;13.380;2023-05-10T11:40:18;6.93;;;2.70;;
69008;SDS011;56065;52.472;13.380;2023-05-10T11:42:44;7.95;;;2.60;;
69008;SDS011;56065;52.472;13.380;2023-05-10T11:45:10;8.07;;;3.00;;
69008;SDS011;56065;52.472;13.380;2023-05-10T11:47:36;5.80;;;2.55;;
69008;SDS011;56065;52.472;13.380;2023-05-10T11:50:02;7.70;;;3.08;;
69008;SDS011;56065;52.472;13.380;2023-05-10T11:52:27;5.17;;;2.93;;
69008;SDS011;56065;52.472;13.380;2023-05-10T11:54:54;5.05;;;2.70;;
69008;SDS011;56065;52.472;13.380;2023-05-10T11:57:20;5.35;;;2.75;;
69008;SDS011;56065;52.472;13.380;2023-05-10T11:59:54;5.75;;;2.80;;
69008;SDS011;56065;52.472;13.380;2023-05-10T12:02:21;6.60;;;2.35;;
69008;SDS011;56065;52.472;13.380;2023-05-10T12:04:46;7.30;;;2.50;;
69008;SDS011;56065;52.472;13.380;2023-05-10T12:07:12;5.87;;;3.00;;
69008;SDS011;56065;52.472;13.380;2023-05-10T12:09:43;5.40;;;2.55;;
69008;SDS011;56065;52.472;13.380;2023-05-10T12:12:10;5.63;;;2.80;;
69008;SDS011;56065;52.472;13.380;2023-05-10T12:14:36;8.93;;;3.20;;
69008;SDS011;56065;52.472;13.380;2023-05-10T12:17:01;5.38;;;2.20;;
69008;SDS011;56065;52.472;13.380;2023-05-10T12:19:27;8.10;;;2.27;;
69008;SDS011;56065;52.472;13.380;2023-05-10T12:21:52;5.03;;;2.77;;
69008;SDS011;56065;52.472;13.380;2023-05-10T12:24:17;7.60;;;2.20;;
69008;SDS011;56065;52.472;13.380;2023-05-10T12:26:45;5.53;;;2.10;;
69008;SDS011;56065;52.472;13.380;2023-05-10T12:29:19;6.13;;;2.42;;
69008;SDS011;56065;52.472;13.380;2023-05-10T12:36:54;9.00;;;2.67;;
69008;SDS011;56065;52.472;13.380;2023-05-10T12:39:20;24.40;;;2.97;;
69008;SDS011;56065;52.472;13.380;2023-05-10T12:41:46;5.80;;;2.50;;
69008;SDS011;56065;52.472;13.380;2023-05-10T12:44:11;29.25;;;8.77;;
69008;SDS011;56065;52.472;13.380;2023-05-10T12:46:36;5.90;;;2.60;;
69008;SDS011;56065;52.472;13.380;2023-05-10T12:49:02;6.43;;;2.37;;
69008;SDS011;56065;52.472;13.380;2023-05-10T12:51:27;5.40;;;2.47;;
69008;SDS011;56065;52.472;13.380;2023-05-10T12:53:52;5.60;;;2.37;;
69008;SDS011;56065;52.472;13.380;2023-05-10T12:56:19;6.15;;;2.45;;
69008;SDS011;56065;52.472;13.380;2023-05-10T12:58:45;5.95;;;2.28;;
69008;SDS011;56065;52.472;13.380;2023-05-10T13:01:12;6.80;;;2.42;;
69008;SDS011;56065;52.472;13.380;2023-05-10T13:03:38;7.37;;;2.30;;
69008;SDS011;56065;52.472;13.380;2023-05-10T13:06:04;7.57;;;2.33;;
69008;SDS011;56065;52.472;13.380;2023-05-10T13:08:29;5.22;;;2.20;;
69008;SDS011;56065;52.472;13.380;2023-05-10T13:10:58;4.85;;;2.20;;
69008;SDS011;56065;52.472;13.380;2023-05-10T13:13:24;6.57;;;2.53;;
69008;SDS011;56065;52.472;13.380;2023-05-10T13:15:49;5.47;;;2.30;;
69008;SDS011;56065;52.472;13.380;2023-05-10T13:18:14;4.72;;;2.10;;
69008;SDS011;56065;52.472;13.380;2023-05-10T13:20:40;8.37;;;2.57;;
69008;SDS011;56065;52.472;13.380;2023-05-10T13:23:05;5.27;;;2.47;;
69008;SDS011;56065;52.472;13.380;2023-05-10T13:25:30;6.33;;;2.00;;
69008;SDS011;56065;52.472;13.380;2023-05-10T13:27:56;5.47;;;2.27;;
69008;SDS011;56065;52.472;13.380;2023-05-10T13:30:21;5.20;;;2.30;;
69008;SDS011;56065;52.472;13.380;2023-05-10T13:32:48;4.77;;;2.30;;
69008;SDS011;56065;52.472;13.380;2023-05-10T13:35:13;5.82;;;2.10;;
69008;SDS011;56065;52.472;13.380;2023-05-10T13:37:38;4.43;;;2.10;;
69008;SDS011;56065;52.472;13.380;2023-05-10T13:40:04;5.60;;;2.17;;
69008;SDS011;56065;52.472;13.380;2023-05-10T13:42:30;6.63;;;2.40;;
69008;SDS011;56065;52.472;13.380;2023-05-10T13:44:56;5.05;;;2.10;;
69008;SDS011;56065;52.472;13.380;2023-05-10T13:47:22;5.13;;;2.00;;
69008;SDS011;56065;52.472;13.380;2023-05-10T13:49:47;4.27;;;1.90;;
69008;SDS011;56065;52.472;13.380;2023-05-10T13:52:12;6.27;;;1.90;;
69008;SDS011;56065;52.472;13.380;2023-05-10T13:54:38;5.25;;;2.05;;
69008;SDS011;56065;52.472;13.380;2023-05-10T13:57:04;8.27;;;2.00;;
69008;SDS011;56065;52.472;13.380;2023-05-10T13:59:29;5.83;;;2.00;;
69008;SDS011;56065;52.472;13.380;2023-05-10T14:01:56;5.47;;;2.63;;
69008;SDS011;56065;52.472;13.380;2023-05-10T14:04:22;7.40;;;2.13;;
69008;SDS011;56065;52.472;13.380;2023-05-10T14:06:47;4.77;;;1.83;;
69008;SDS011;56065;52.472;13.380;2023-05-10T14:09:13;6.25;;;2.38;;
69008;SDS011;56065;52.472;13.380;2023-05-10T14:11:39;6.43;;;1.90;;
69008;SDS011;56065;52.472;13.380;2023-05-10T14:14:08;5.40;;;1.92;;
69008;SDS011;56065;52.472;13.380;2023-05-10T14:16:36;6.85;;;2.30;;
69008;SDS011;56065;52.472;13.380;2023-05-10T14:19:02;4.70;;;1.80;;
69008;SDS011;56065;52.472;13.380;2023-05-10T14:21:27;7.07;;;2.08;;
69008;SDS011;56065;52.472;13.380;2023-05-10T14:23:55;4.80;;;2.10;;
69008;SDS011;56065;52.472;13.380;2023-05-10T14:26:21;11.27;;;2.33;;
69008;SDS011;56065;52.472;13.380;2023-05-10T14:28:46;5.90;;;2.00;;
69008;SDS011;56065;52.472;13.380;2023-05-10T14:31:12;5.50;;;2.00;;
69008;SDS011;56065;52.472;13.380;2023-05-10T14:33:37;6.03;;;2.60;;
69008;SDS011;56065;52.472;13.380;2023-05-10T14:36:03;8.17;;;2.30;;
69008;SDS011;56065;52.472;13.380;2023-05-10T14:38:28;6.22;;;2.58;;
69008;SDS011;56065;52.472;13.380;2023-05-10T14:40:54;6.43;;;2.23;;
69008;SDS011;56065;52.472;13.380;2023-05-10T14:43:20;5.78;;;2.08;;
69008;SDS011;56065;52.472;13.380;2023-05-10T14:45:45;5.83;;;2.00;;
69008;SDS011;56065;52.472;13.380;2023-05-10T14:48:11;4.20;;;1.80;;
69008;SDS011;56065;52.472;13.380;2023-05-10T14:50:40;6.82;;;2.08;;
69008;SDS011;56065;52.472;13.380;2023-05-10T14:53:05;6.13;;;1.90;;
69008;SDS011;56065;52.472;13.380;2023-05-10T14:55:31;8.45;;;1.85;;
69008;SDS011;56065;52.472;13.380;2023-05-10T14:57:57;5.33;;;2.00;;
69008;SDS011;56065;52.472;13.380;2023-05-10T15:00:23;6.65;;;2.10;;
69008;SDS011;56065;52.472;13.380;2023-05-10T15:02:48;7.47;;;2.20;;
69008;SDS011;56065;52.472;13.380;2023-05-10T15:05:14;7.30;;;2.00;;
69008;SDS011;56065;52.472;13.380;2023-05-10T15:07:39;6.45;;;1.88;;
69008;SDS011;56065;52.472;13.380;2023-05-10T15:10:05;7.30;;;1.90;;
69008;SDS011;56065;52.472;13.380;2023-05-10T15:12:31;6.47;;;1.70;;
69008;SDS011;56065;52.472;13.380;2023-05-10T15:14:56;4.73;;;2.07;;